createdAt,value
2018-01-14T00:00:34.575Z,21.56
2018-01-14T00:01:34.567Z,20.28
2018-01-14T00:02:34.557Z,20.69
2018-01-14T00:03:34.549Z,20.56
2018-01-14T00:04:34.539Z,19.74
2018-01-14T00:05:34.535Z,19.03
2018-01-14T00:06:34.523Z,21.26
2018-01-14T00:07:34.520Z,23.51
2018-01-14T00:08:34.508Z,20.47
2018-01-14T00:09:34.502Z,19.34
2018-01-14T00:10:34.495Z,21.49
2018-01-14T00:11:34.474Z,23.00
2018-01-14T00:12:34.475Z,22.45
2018-01-14T00:13:34.469Z,20.44
2018-01-14T00:14:34.464Z,19.33
2018-01-14T00:15:34.462Z,20.46
2018-01-14T00:16:34.440Z,20.87
2018-01-14T00:17:34.432Z,20.22
2018-01-14T00:18:34.422Z,21.71
2018-01-14T00:19:34.415Z,19.87
2018-01-14T00:20:34.405Z,20.87
2018-01-14T00:21:34.394Z,24.39
2018-01-14T00:22:34.391Z,21.19
2018-01-14T00:23:34.382Z,21.10
2018-01-14T00:24:34.372Z,21.32
2018-01-14T00:25:34.374Z,22.58
2018-01-14T00:26:34.357Z,20.17
2018-01-14T00:27:34.346Z,20.82
2018-01-14T00:28:34.337Z,21.90
2018-01-14T00:29:34.330Z,20.85
2018-01-14T00:30:34.321Z,21.37
2018-01-14T00:31:34.317Z,21.60
2018-01-14T00:32:34.303Z,23.18
2018-01-14T00:33:34.300Z,20.59
2018-01-14T00:34:34.289Z,22.44
2018-01-14T00:35:34.279Z,19.78
2018-01-14T00:36:34.274Z,20.58
2018-01-14T00:37:34.263Z,20.59
2018-01-14T00:38:34.257Z,23.20
2018-01-14T00:39:34.246Z,21.77
2018-01-14T00:40:34.238Z,23.32
2018-01-14T00:41:34.229Z,20.98
2018-01-14T00:42:34.234Z,22.35
2018-01-14T00:43:34.220Z,22.87
2018-01-14T00:44:34.203Z,21.35
2018-01-14T00:45:34.229Z,21.21
2018-01-14T00:46:34.189Z,21.52
2018-01-14T00:47:34.176Z,21.36
2018-01-14T00:48:34.168Z,22.36
2018-01-14T00:49:34.161Z,22.23
2018-01-14T00:50:34.152Z,22.02
2018-01-14T00:51:34.146Z,20.61
2018-01-14T00:52:34.137Z,22.90
2018-01-14T00:53:34.128Z,22.24
2018-01-14T00:54:34.117Z,21.16
2018-01-14T00:55:34.111Z,22.45
2018-01-14T00:56:34.097Z,23.42
2018-01-14T00:57:34.100Z,21.89
2018-01-14T00:58:34.081Z,22.26
2018-01-14T00:59:34.076Z,22.45
2018-01-14T01:00:34.067Z,22.17
2018-01-14T01:01:34.057Z,20.86
2018-01-14T01:02:34.050Z,19.92
2018-01-14T01:03:34.046Z,21.72
2018-01-14T01:04:34.035Z,22.97
2018-01-14T01:05:34.034Z,21.57
2018-01-14T01:06:34.018Z,20.37
2018-01-14T01:07:34.010Z,18.74
2018-01-14T01:08:34.004Z,21.09
2018-01-14T01:09:33.991Z,21.44
2018-01-14T01:10:33.981Z,22.28
2018-01-14T01:11:33.973Z,21.62
2018-01-14T01:12:33.968Z,20.54
2018-01-14T01:13:33.961Z,21.48
2018-01-14T01:14:33.956Z,21.95
2018-01-14T01:15:33.941Z,21.60
2018-01-14T01:16:33.939Z,21.16
2018-01-14T01:17:33.922Z,21.88
2018-01-14T01:18:33.912Z,25.85
2018-01-14T01:19:33.907Z,25.71
2018-01-14T01:20:33.898Z,20.85
2018-01-14T01:21:33.887Z,22.51
2018-01-14T01:22:33.882Z,21.81
2018-01-14T01:23:33.877Z,20.72
2018-01-14T01:24:33.867Z,21.66
2018-01-14T01:25:33.852Z,22.42
2018-01-14T01:26:33.844Z,21.67
2018-01-14T01:27:33.838Z,21.38
2018-01-14T01:28:33.826Z,20.76
2018-01-14T01:29:33.820Z,21.04
2018-01-14T01:30:33.814Z,22.83
2018-01-14T01:31:33.803Z,22.71
2018-01-14T01:32:33.802Z,22.69
2018-01-14T01:33:33.782Z,22.01
2018-01-14T01:34:33.775Z,22.99
2018-01-14T01:35:33.774Z,22.11
2018-01-14T01:36:33.755Z,20.39
2018-01-14T01:37:33.749Z,20.96
2018-01-14T01:38:33.746Z,20.53
2018-01-14T01:39:33.731Z,22.18
2018-01-14T01:40:33.723Z,20.97
2018-01-14T01:41:33.726Z,21.22
2018-01-14T01:42:33.706Z,22.31
2018-01-14T01:43:33.701Z,23.32
2018-01-14T01:44:33.688Z,23.91
2018-01-14T01:45:33.683Z,23.04
2018-01-14T01:46:33.674Z,22.82
2018-01-14T01:47:33.664Z,22.52
2018-01-14T01:48:33.657Z,21.39
2018-01-14T01:49:33.647Z,21.85
2018-01-14T01:50:33.640Z,23.04
2018-01-14T01:51:33.640Z,23.35
2018-01-14T01:52:33.623Z,21.59
2018-01-14T01:53:33.613Z,22.13
2018-01-14T01:54:33.603Z,25.14
2018-01-14T01:55:33.603Z,23.32
2018-01-14T01:56:33.587Z,22.77
2018-01-14T01:57:33.588Z,21.90
2018-01-14T01:58:33.569Z,23.09
2018-01-14T01:59:33.558Z,23.46
2018-01-14T02:00:33.561Z,22.33
2018-01-14T02:01:33.544Z,23.98
2018-01-14T02:02:33.534Z,24.78
2018-01-14T02:03:33.527Z,23.68
2018-01-14T02:04:33.520Z,24.19
2018-01-14T02:05:33.509Z,22.73
2018-01-14T02:06:33.500Z,22.36
2018-01-14T02:07:33.491Z,21.50
2018-01-14T02:08:33.480Z,23.56
2018-01-14T02:09:33.471Z,23.01
2018-01-14T02:10:33.468Z,24.00
2018-01-14T02:11:33.447Z,23.39
2018-01-14T02:12:33.445Z,23.64
2018-01-14T02:13:33.434Z,25.42
2018-01-14T02:14:33.434Z,25.86
2018-01-14T02:15:33.419Z,23.91
2018-01-14T02:16:33.409Z,23.99
2018-01-14T02:17:33.405Z,26.41
2018-01-14T02:18:33.391Z,23.08
2018-01-14T02:19:33.389Z,21.96
2018-01-14T02:20:33.399Z,24.16
2018-01-14T02:21:33.376Z,24.60
2018-01-14T02:22:33.360Z,24.62
2018-01-14T02:23:33.354Z,22.33
2018-01-14T02:24:33.344Z,23.84
2018-01-14T02:25:34.020Z,24.57
2018-01-14T02:26:33.325Z,24.11
2018-01-14T02:27:33.315Z,23.39
2018-01-14T02:28:33.307Z,23.77
2018-01-14T02:29:33.296Z,24.77
2018-01-14T02:30:33.284Z,23.24
2018-01-14T02:31:33.274Z,25.23
2018-01-14T02:32:33.277Z,26.20
2018-01-14T02:33:33.264Z,23.34
2018-01-14T02:34:34.028Z,23.42
2018-01-14T02:35:33.245Z,23.40
2018-01-14T02:36:33.239Z,24.17
2018-01-14T02:37:33.229Z,23.81
2018-01-14T02:38:33.223Z,24.69
2018-01-14T02:39:33.211Z,24.89
2018-01-14T02:40:33.203Z,23.79
2018-01-14T02:41:33.210Z,23.18
2018-01-14T02:42:33.177Z,23.58
2018-01-14T02:43:33.178Z,25.65
2018-01-14T02:44:33.170Z,27.48
2018-01-14T02:45:33.156Z,24.74
2018-01-14T02:46:33.151Z,23.28
2018-01-14T02:47:33.137Z,25.84
2018-01-14T02:48:33.134Z,26.01
2018-01-14T02:49:33.123Z,23.83
2018-01-14T02:50:33.112Z,26.02
2018-01-14T02:51:33.116Z,24.32
2018-01-14T02:52:33.096Z,24.06
2018-01-14T02:53:33.093Z,23.03
2018-01-14T02:54:33.084Z,24.67
2018-01-14T02:55:33.072Z,23.37
2018-01-14T02:56:33.060Z,22.45
2018-01-14T02:57:33.050Z,23.59
2018-01-14T02:58:33.040Z,24.78
2018-01-14T02:59:33.040Z,25.32
2018-01-14T03:00:33.027Z,25.41
2018-01-14T03:01:33.015Z,25.43
2018-01-14T03:02:33.004Z,25.27
2018-01-14T03:03:33.016Z,24.47
2018-01-14T03:04:32.991Z,26.08
2018-01-14T03:05:32.987Z,23.21
2018-01-14T03:06:32.973Z,24.60
2018-01-14T03:07:32.954Z,23.97
2018-01-14T03:08:32.957Z,24.49
2018-01-14T03:09:32.949Z,26.80
2018-01-14T03:10:32.934Z,26.18
2018-01-14T03:11:32.924Z,24.42
2018-01-14T03:12:32.918Z,23.88
2018-01-14T03:13:32.904Z,25.88
2018-01-14T03:14:33.527Z,25.18
2018-01-14T03:15:32.890Z,26.02
2018-01-14T03:16:32.878Z,26.88
2018-01-14T03:17:32.873Z,24.01
2018-01-14T03:18:32.863Z,25.73
2018-01-14T03:19:32.858Z,26.99
2018-01-14T03:20:32.841Z,24.75
2018-01-14T03:21:32.831Z,22.50
2018-01-14T03:22:32.826Z,24.70
2018-01-14T03:23:32.816Z,25.79
2018-01-14T03:24:32.809Z,27.86
2018-01-14T03:25:32.799Z,26.98
2018-01-14T03:26:32.793Z,23.82
2018-01-14T03:27:32.791Z,23.65
2018-01-14T03:28:32.768Z,25.31
2018-01-14T03:29:32.764Z,26.89
2018-01-14T03:30:32.767Z,25.53
2018-01-14T03:31:32.746Z,25.93
2018-01-14T03:32:32.736Z,24.48
2018-01-14T03:33:32.729Z,23.99
2018-01-14T03:34:32.715Z,25.06
2018-01-14T03:35:32.709Z,25.22
2018-01-14T03:36:32.702Z,25.18
2018-01-14T03:37:32.699Z,22.72
2018-01-14T03:38:32.690Z,23.29
2018-01-14T03:39:32.671Z,24.82
2018-01-14T03:40:32.662Z,25.26
2018-01-14T03:41:32.656Z,26.52
2018-01-14T03:42:32.647Z,23.93
2018-01-14T03:43:32.639Z,26.32
2018-01-14T03:44:32.629Z,26.50
2018-01-14T03:45:32.618Z,24.28
2018-01-14T03:46:32.611Z,25.38
2018-01-14T03:47:32.604Z,27.55
2018-01-14T03:48:32.595Z,25.92
2018-01-14T03:49:32.580Z,25.16
2018-01-14T03:50:32.586Z,25.95
2018-01-14T03:51:32.567Z,25.82
2018-01-14T03:52:32.563Z,25.44
2018-01-14T03:53:33.540Z,23.92
2018-01-14T03:54:32.537Z,24.18
2018-01-14T03:55:32.528Z,24.21
2018-01-14T03:56:32.520Z,22.59
2018-01-14T03:57:32.512Z,24.25
2018-01-14T03:58:32.500Z,24.90
2018-01-14T03:59:32.493Z,26.33
2018-01-14T04:00:32.484Z,23.44
2018-01-14T04:01:32.478Z,23.79
2018-01-14T04:02:32.472Z,24.55
2018-01-14T04:03:32.465Z,25.09
2018-01-14T04:04:32.453Z,23.54
2018-01-14T04:05:32.453Z,26.09
2018-01-14T04:06:32.431Z,25.51
2018-01-14T04:07:32.425Z,24.76
2018-01-14T04:08:32.416Z,24.70
2018-01-14T04:09:32.413Z,25.43
2018-01-14T04:10:32.392Z,25.84
2018-01-14T04:11:32.381Z,24.70
2018-01-14T04:12:32.379Z,23.37
2018-01-14T04:13:32.368Z,25.44
2018-01-14T04:14:32.359Z,25.35
2018-01-14T04:15:32.344Z,26.06
2018-01-14T04:16:32.337Z,26.84
2018-01-14T04:17:32.336Z,23.90
2018-01-14T04:18:32.324Z,25.01
2018-01-14T04:19:33.046Z,25.14
2018-01-14T04:20:32.306Z,26.50
2018-01-14T04:21:32.294Z,25.61
2018-01-14T04:22:32.285Z,27.87
2018-01-14T04:23:32.267Z,26.61
2018-01-14T04:24:32.269Z,26.30
2018-01-14T04:25:33.055Z,26.62
2018-01-14T04:26:32.281Z,23.93
2018-01-14T04:27:32.249Z,25.88
2018-01-14T04:28:32.241Z,26.48
2018-01-14T04:29:33.059Z,24.24
2018-01-14T04:30:32.215Z,24.42
2018-01-14T04:31:32.208Z,25.39
2018-01-14T04:32:32.200Z,25.64
2018-01-14T04:33:32.187Z,25.36
2018-01-14T04:34:32.182Z,24.74
2018-01-14T04:35:32.165Z,23.21
2018-01-14T04:36:32.162Z,25.35
2018-01-14T04:37:32.148Z,25.93
2018-01-14T04:38:32.138Z,25.30
2018-01-14T04:39:32.133Z,24.84
2018-01-14T04:40:32.132Z,25.14
2018-01-14T04:41:32.119Z,25.38
2018-01-14T04:42:32.102Z,23.54
2018-01-14T04:43:32.094Z,24.69
2018-01-14T04:44:32.088Z,25.82
2018-01-14T04:45:32.088Z,25.40
2018-01-14T04:46:32.072Z,23.84
2018-01-14T04:47:32.059Z,24.65
2018-01-14T04:48:32.062Z,24.03
2018-01-14T04:49:32.042Z,27.11
2018-01-14T04:50:32.031Z,24.42
2018-01-14T04:51:32.023Z,25.54
2018-01-14T04:52:32.014Z,23.92
2018-01-14T04:53:32.005Z,25.24
2018-01-14T04:54:31.992Z,24.86
2018-01-14T04:55:31.988Z,25.85
2018-01-14T04:56:31.975Z,25.87
2018-01-14T04:57:31.970Z,25.74
2018-01-14T04:58:31.957Z,26.02
2018-01-14T04:59:31.950Z,28.47
2018-01-14T05:00:31.949Z,25.38
2018-01-14T05:01:31.934Z,24.68
2018-01-14T05:02:31.926Z,23.06
2018-01-14T05:03:31.911Z,24.31
2018-01-14T05:04:31.912Z,24.78
2018-01-14T05:05:31.888Z,23.35
2018-01-14T05:06:31.889Z,23.75
2018-01-14T05:07:31.881Z,25.19
2018-01-14T05:08:31.869Z,24.37
2018-01-14T05:09:31.868Z,22.86
2018-01-14T05:10:31.849Z,24.28
2018-01-14T05:11:31.843Z,23.26
2018-01-14T05:12:31.831Z,25.12
2018-01-14T05:13:31.820Z,23.09
2018-01-14T05:14:31.835Z,23.06
2018-01-14T05:15:31.799Z,24.27
2018-01-14T05:16:31.796Z,25.07
2018-01-14T05:17:31.787Z,25.34
2018-01-14T05:18:31.777Z,25.75
2018-01-14T05:19:31.774Z,25.82
2018-01-14T05:20:31.768Z,24.52
2018-01-14T05:21:31.752Z,23.82
2018-01-14T05:22:31.737Z,23.85
2018-01-14T05:23:31.731Z,23.66
2018-01-14T05:24:31.720Z,22.81
2018-01-14T05:25:31.719Z,24.36
2018-01-14T05:26:31.706Z,25.23
2018-01-14T05:27:31.703Z,25.00
2018-01-14T05:28:31.684Z,26.24
2018-01-14T05:29:31.675Z,26.90
2018-01-14T05:30:31.686Z,24.46
2018-01-14T05:31:31.665Z,23.34
2018-01-14T05:32:31.656Z,22.51
2018-01-14T05:33:31.642Z,25.22
2018-01-14T05:34:31.631Z,24.65
2018-01-14T05:35:31.616Z,25.22
2018-01-14T05:36:31.618Z,24.72
2018-01-14T05:37:31.619Z,25.90
2018-01-14T05:38:31.593Z,23.12
2018-01-14T05:39:31.646Z,24.20
2018-01-14T05:40:31.583Z,25.58
2018-01-14T05:41:31.571Z,26.40
2018-01-14T05:42:31.555Z,25.29
2018-01-14T05:43:31.551Z,27.28
2018-01-14T05:44:31.544Z,25.99
2018-01-14T05:45:31.535Z,24.54
2018-01-14T05:46:31.531Z,25.41
2018-01-14T05:47:31.512Z,26.08
2018-01-14T05:48:31.504Z,23.85
2018-01-14T05:49:31.505Z,25.71
2018-01-14T05:50:31.480Z,25.61
2018-01-14T05:51:31.475Z,24.34
2018-01-14T05:52:31.466Z,26.25
2018-01-14T05:53:31.462Z,27.04
2018-01-14T05:54:31.452Z,26.98
2018-01-14T05:55:31.443Z,26.53
2018-01-14T05:56:31.432Z,25.90
2018-01-14T05:57:31.422Z,26.44
2018-01-14T05:58:31.409Z,28.36
2018-01-14T05:59:31.406Z,26.48
2018-01-14T06:00:31.394Z,25.26
2018-01-14T06:01:31.386Z,26.76
2018-01-14T06:02:31.374Z,26.28
2018-01-14T06:03:31.373Z,26.41
2018-01-14T06:04:31.356Z,23.82
2018-01-14T06:05:31.349Z,24.91
2018-01-14T06:06:31.335Z,26.22
2018-01-14T06:07:32.083Z,24.34
2018-01-14T06:08:31.320Z,25.11
2018-01-14T06:09:32.096Z,27.06
2018-01-14T06:10:31.304Z,27.64
2018-01-14T06:11:31.288Z,26.48
2018-01-14T06:12:31.299Z,25.50
2018-01-14T06:13:32.091Z,27.67
2018-01-14T06:14:34.087Z,25.87
2018-01-14T06:15:31.259Z,26.68
2018-01-14T06:16:31.248Z,26.57
2018-01-14T06:17:31.237Z,26.60
2018-01-14T06:18:31.227Z,25.78
2018-01-14T06:19:31.211Z,27.61
2018-01-14T06:20:31.211Z,26.68
2018-01-14T06:21:31.204Z,26.37
2018-01-14T06:22:31.188Z,25.66
2018-01-14T06:23:31.176Z,24.84
2018-01-14T06:24:31.182Z,27.92
2018-01-14T06:25:31.164Z,26.48
2018-01-14T06:26:31.157Z,29.15
2018-01-14T06:27:31.146Z,27.39
2018-01-14T06:28:31.141Z,26.09
2018-01-14T06:29:31.128Z,26.05
2018-01-14T06:30:31.115Z,26.09
2018-01-14T06:31:31.106Z,27.58
2018-01-14T06:32:31.098Z,27.32
2018-01-14T06:33:31.089Z,26.27
2018-01-14T06:34:31.079Z,26.75
2018-01-14T06:35:31.071Z,25.39
2018-01-14T06:36:31.068Z,27.03
2018-01-14T06:37:31.062Z,25.34
2018-01-14T06:38:31.042Z,25.48
2018-01-14T06:39:31.029Z,27.41
2018-01-14T06:40:31.025Z,26.61
2018-01-14T06:41:31.016Z,26.55
2018-01-14T06:42:30.995Z,27.87
2018-01-14T06:43:30.992Z,29.03
2018-01-14T06:44:30.983Z,29.20
2018-01-14T06:45:30.975Z,25.71
2018-01-14T06:46:30.963Z,27.62
2018-01-14T06:47:30.953Z,27.95
2018-01-14T06:48:30.944Z,27.19
2018-01-14T06:49:30.934Z,28.99
2018-01-14T06:50:30.924Z,28.45
2018-01-14T06:51:30.941Z,28.11
2018-01-14T06:51:42.915Z,1.07
2018-01-14T06:53:30.898Z,26.94
2018-01-14T06:54:30.883Z,26.66
2018-01-14T06:55:30.884Z,24.99
2018-01-14T06:56:30.862Z,26.92
2018-01-14T06:57:30.850Z,29.18
2018-01-14T06:58:30.849Z,28.10
2018-01-14T06:59:30.841Z,28.08
2018-01-14T07:00:30.826Z,28.39
2018-01-14T07:01:30.827Z,28.48
2018-01-14T07:02:30.806Z,27.68
2018-01-14T07:03:30.797Z,29.35
2018-01-14T07:04:30.788Z,29.13
2018-01-14T07:05:30.785Z,28.39
2018-01-14T07:06:30.771Z,29.20
2018-01-14T07:07:30.772Z,28.61
2018-01-14T07:08:30.749Z,28.81
2018-01-14T07:09:30.737Z,28.22
2018-01-14T07:10:30.729Z,28.03
2018-01-14T07:11:30.732Z,28.36
2018-01-14T07:12:30.706Z,29.85
2018-01-14T07:13:30.698Z,29.99
2018-01-14T07:14:37.876Z,29.68
2018-01-14T07:15:30.676Z,27.59
2018-01-14T07:16:30.663Z,28.35
2018-01-14T07:17:30.652Z,32.91
2018-01-14T07:18:30.652Z,31.17
2018-01-14T07:19:30.636Z,31.38
2018-01-14T07:20:30.626Z,32.32
2018-01-14T07:21:30.618Z,28.66
2018-01-14T07:22:30.607Z,27.42
2018-01-14T07:23:30.597Z,29.66
2018-01-14T07:24:36.889Z,28.94
2018-01-14T07:25:30.587Z,29.40
2018-01-14T07:26:30.595Z,30.77
2018-01-14T07:27:30.555Z,29.61
2018-01-14T07:28:30.546Z,31.16
2018-01-14T07:29:30.587Z,31.01
2018-01-14T07:30:30.520Z,28.37
2018-01-14T07:31:30.519Z,29.20
2018-01-14T07:32:30.497Z,29.04
2018-01-14T07:33:30.494Z,29.73
2018-01-14T07:34:30.479Z,28.86
2018-01-14T07:35:30.489Z,30.32
2018-01-14T07:36:30.461Z,29.81
2018-01-14T07:37:30.450Z,31.44
2018-01-14T07:38:30.442Z,31.61
2018-01-14T07:39:30.484Z,29.58
2018-01-14T07:40:30.425Z,30.29
2018-01-14T07:41:30.430Z,30.18
2018-01-14T07:42:30.421Z,29.85
2018-01-14T07:43:30.386Z,30.44
2018-01-14T07:44:30.388Z,31.19
2018-01-14T07:45:30.367Z,29.09
2018-01-14T07:46:30.362Z,31.01
2018-01-14T07:47:30.353Z,31.88
2018-01-14T07:48:30.338Z,32.77
2018-01-14T07:49:30.327Z,29.96
2018-01-14T07:50:30.323Z,30.33
2018-01-14T07:51:30.308Z,29.50
2018-01-14T07:52:30.301Z,28.62
2018-01-14T07:53:30.298Z,31.35
2018-01-14T07:54:30.296Z,31.44
2018-01-14T07:55:30.263Z,31.50
2018-01-14T07:56:30.253Z,32.53
2018-01-14T07:57:30.245Z,34.23
2018-01-14T07:58:30.230Z,32.56
2018-01-14T07:59:30.225Z,34.04
2018-01-14T08:00:30.230Z,33.50
2018-01-14T08:01:31.130Z,32.89
2018-01-14T08:02:31.116Z,29.79
2018-01-14T08:03:30.230Z,30.77
2018-01-14T08:04:30.175Z,30.46
2018-01-14T08:05:30.169Z,36.65
2018-01-14T08:06:30.152Z,40.62
2018-01-14T08:07:30.149Z,40.20
2018-01-14T08:08:30.134Z,32.70
2018-01-14T08:09:30.115Z,31.15
2018-01-14T08:10:30.657Z,31.34
2018-01-14T08:11:30.098Z,32.48
2018-01-14T08:12:30.087Z,31.24
2018-01-14T08:13:30.075Z,30.20
2018-01-14T08:14:30.066Z,33.62
2018-01-14T08:15:30.056Z,33.93
2018-01-14T08:16:30.047Z,32.03
2018-01-14T08:17:30.042Z,32.50
2018-01-14T08:18:30.030Z,31.40
2018-01-14T08:19:30.021Z,33.69
2018-01-14T08:20:30.012Z,32.05
2018-01-14T08:21:30.008Z,29.55
2018-01-14T08:22:29.991Z,30.31
2018-01-14T08:23:29.976Z,31.00
2018-01-14T08:24:29.967Z,33.14
2018-01-14T08:25:29.951Z,31.44
2018-01-14T08:26:29.936Z,31.52
2018-01-14T08:27:29.933Z,33.33
2018-01-14T08:28:29.921Z,28.36
2018-01-14T08:29:29.914Z,31.58
2018-01-14T08:30:29.900Z,31.97
2018-01-14T08:31:29.900Z,31.46
2018-01-14T08:32:29.877Z,34.06
2018-01-14T08:33:30.640Z,31.86
2018-01-14T08:34:29.859Z,32.21
2018-01-14T08:35:29.852Z,31.78
2018-01-14T08:36:29.853Z,32.17
2018-01-14T08:37:29.846Z,32.02
2018-01-14T08:38:30.645Z,31.31
2018-01-14T08:39:29.813Z,30.63
2018-01-14T08:40:29.803Z,30.62
2018-01-14T08:41:29.790Z,34.60
2018-01-14T08:42:29.782Z,29.71
2018-01-14T08:43:29.773Z,32.41
2018-01-14T08:44:29.761Z,32.42
2018-01-14T08:45:29.744Z,31.09
2018-01-14T08:46:29.742Z,33.49
2018-01-14T08:47:30.633Z,33.03
2018-01-14T08:48:29.715Z,32.40
2018-01-14T08:49:29.714Z,31.42
2018-01-14T08:50:29.700Z,31.65
2018-01-14T08:51:29.695Z,32.37
2018-01-14T08:52:29.676Z,30.70
2018-01-14T08:53:29.663Z,31.59
2018-01-14T08:54:29.656Z,31.92
2018-01-14T08:55:29.649Z,33.26
2018-01-14T08:56:29.636Z,33.26
2018-01-14T08:57:29.628Z,29.82
2018-01-14T08:58:29.617Z,30.70
2018-01-14T08:59:30.136Z,28.52
2018-01-14T09:00:29.598Z,31.13
2018-01-14T09:01:29.591Z,33.62
2018-01-14T09:02:29.575Z,33.50
2018-01-14T09:03:29.569Z,33.12
2018-01-14T09:04:29.555Z,34.31
2018-01-14T09:05:29.545Z,30.48
2018-01-14T09:06:29.548Z,31.78
2018-01-14T09:07:29.527Z,31.93
2018-01-14T09:08:29.543Z,31.82
2018-01-14T09:09:29.502Z,33.96
2018-01-14T09:10:29.495Z,30.51
2018-01-14T09:11:29.490Z,32.12
2018-01-14T09:12:29.474Z,32.67
2018-01-14T09:13:29.473Z,34.89
2018-01-14T09:14:29.456Z,33.63
2018-01-14T09:15:30.141Z,31.27
2018-01-14T09:16:29.443Z,31.36
2018-01-14T09:17:29.430Z,30.99
2018-01-14T09:18:29.415Z,31.80
2018-01-14T09:19:29.436Z,33.16
2018-01-14T09:20:30.159Z,32.16
2018-01-14T09:21:29.382Z,33.93
2018-01-14T09:22:29.379Z,32.56
2018-01-14T09:23:29.370Z,33.37
2018-01-14T09:24:29.357Z,33.27
2018-01-14T09:25:29.374Z,33.21
2018-01-14T09:26:29.351Z,31.60
2018-01-14T09:27:29.330Z,32.97
2018-01-14T09:28:29.323Z,32.82
2018-01-14T09:29:29.316Z,30.76
2018-01-14T09:30:29.298Z,30.60
2018-01-14T09:31:29.294Z,30.43
2018-01-14T09:32:30.142Z,32.94
2018-01-14T09:33:29.275Z,31.97
2018-01-14T09:34:29.265Z,32.56
2018-01-14T09:35:29.254Z,33.17
2018-01-14T09:36:29.247Z,32.43
2018-01-14T09:37:29.251Z,29.87
2018-01-14T09:38:29.222Z,32.21
2018-01-14T09:39:29.210Z,34.09
2018-01-14T09:40:29.202Z,32.49
2018-01-14T09:41:29.202Z,30.42
2018-01-14T09:42:30.154Z,30.59
2018-01-14T09:43:29.179Z,31.84
2018-01-14T09:44:29.165Z,33.61
2018-01-14T09:45:29.155Z,32.42
2018-01-14T09:46:29.157Z,30.89
2018-01-14T09:47:29.126Z,34.37
2018-01-14T09:48:29.126Z,33.00
2018-01-14T09:49:29.119Z,31.82
2018-01-14T09:50:29.141Z,31.89
2018-01-14T09:51:29.100Z,32.76
2018-01-14T09:52:29.104Z,32.18
2018-01-14T09:53:29.082Z,35.36
2018-01-14T09:54:29.063Z,35.54
2018-01-14T09:55:29.076Z,32.84
2018-01-14T09:56:29.052Z,33.88
2018-01-14T09:57:29.040Z,33.24
2018-01-14T09:58:29.045Z,34.27
2018-01-14T09:59:29.041Z,34.31
2018-01-14T10:00:29.013Z,32.22
2018-01-14T10:01:29.024Z,31.04
2018-01-14T10:02:28.990Z,30.49
2018-01-14T10:03:28.980Z,32.28
2018-01-14T10:04:28.980Z,31.13
2018-01-14T10:05:28.970Z,33.26
2018-01-14T10:06:28.953Z,33.77
2018-01-14T10:07:28.961Z,31.01
2018-01-14T10:08:28.930Z,32.14
2018-01-14T10:09:28.949Z,31.26
2018-01-14T10:10:28.917Z,31.26
2018-01-14T10:11:28.944Z,30.49
2018-01-14T10:12:28.904Z,31.82
2018-01-14T10:13:28.915Z,34.19
2018-01-14T10:14:28.877Z,33.52
2018-01-14T10:15:28.870Z,31.55
2018-01-14T10:16:29.661Z,32.70
2018-01-14T10:17:28.861Z,31.99
2018-01-14T10:18:28.877Z,30.18
2018-01-14T10:19:28.857Z,30.76
2018-01-14T10:20:28.857Z,31.60
2018-01-14T10:21:28.818Z,32.89
2018-01-14T10:22:28.807Z,30.74
2018-01-14T10:23:28.792Z,30.00
2018-01-14T10:24:28.783Z,29.94
2018-01-14T10:25:28.776Z,31.86
2018-01-14T10:26:28.762Z,31.28
2018-01-14T10:27:28.760Z,31.32
2018-01-14T10:28:28.747Z,31.32
2018-01-14T10:29:28.749Z,32.91
2018-01-14T10:30:28.798Z,30.64
2018-01-14T10:31:28.736Z,29.52
2018-01-14T10:32:29.688Z,29.81
2018-01-14T10:33:28.698Z,31.90
2018-01-14T10:34:28.705Z,31.84
2018-01-14T10:35:28.749Z,30.23
2018-01-14T10:36:28.670Z,28.56
2018-01-14T10:37:28.665Z,30.01
2018-01-14T10:38:28.649Z,29.75
2018-01-14T10:39:28.659Z,30.19
2018-01-14T10:40:28.635Z,31.54
2018-01-14T10:41:28.640Z,28.64
2018-01-14T10:42:28.616Z,29.95
2018-01-14T10:43:28.607Z,32.77
2018-01-14T10:44:28.608Z,31.86
2018-01-14T10:45:28.601Z,30.83
2018-01-14T10:46:28.602Z,31.22
2018-01-14T10:47:28.578Z,30.36
2018-01-14T10:48:28.564Z,31.29
2018-01-14T10:49:28.554Z,32.20
2018-01-14T10:50:28.549Z,30.58
2018-01-14T10:51:28.527Z,32.09
2018-01-14T10:52:28.541Z,33.79
2018-01-14T10:53:28.524Z,31.70
2018-01-14T10:54:28.502Z,33.01
2018-01-14T10:55:28.494Z,31.46
2018-01-14T10:56:28.494Z,30.21
2018-01-14T10:57:28.490Z,29.29
2018-01-14T10:58:28.475Z,30.18
2018-01-14T10:59:28.474Z,28.99
2018-01-14T11:00:28.455Z,32.26
2018-01-14T11:01:28.444Z,30.64
2018-01-14T11:02:28.431Z,28.46
2018-01-14T11:03:28.437Z,29.86
2018-01-14T11:04:28.416Z,33.71
2018-01-14T11:05:28.423Z,31.68
2018-01-14T11:06:28.403Z,30.11
2018-01-14T11:07:28.390Z,28.74
2018-01-14T11:08:28.374Z,27.48
2018-01-14T11:09:28.367Z,29.28
2018-01-14T11:10:28.361Z,29.90
2018-01-14T11:11:29.515Z,28.70
2018-01-14T11:12:28.362Z,28.61
2018-01-14T11:13:28.337Z,29.15
2018-01-14T11:14:28.327Z,29.60
2018-01-14T11:15:28.342Z,30.60
2018-01-14T11:16:28.319Z,29.59
2018-01-14T11:17:28.296Z,29.64
2018-01-14T11:18:28.299Z,30.46
2018-01-14T11:19:28.295Z,28.94
2018-01-14T11:20:28.328Z,29.58
2018-01-14T11:21:28.263Z,29.71
2018-01-14T11:22:28.248Z,28.31
2018-01-14T11:23:28.246Z,29.79
2018-01-14T11:24:28.232Z,28.86
2018-01-14T11:25:28.245Z,30.09
2018-01-14T11:26:28.221Z,28.90
2018-01-14T11:27:28.210Z,27.36
2018-01-14T11:28:28.203Z,27.64
2018-01-14T11:29:28.199Z,26.51
2018-01-14T11:30:28.190Z,28.10
2018-01-14T11:31:28.185Z,28.93
2018-01-14T11:32:28.167Z,27.07
2018-01-14T11:33:28.209Z,27.33
2018-01-14T11:34:28.154Z,29.45
2018-01-14T11:35:28.155Z,27.02
2018-01-14T11:36:28.148Z,28.49
2018-01-14T11:37:28.117Z,27.29
2018-01-14T11:38:28.118Z,26.78
2018-01-14T11:39:28.139Z,26.32
2018-01-14T11:40:28.156Z,27.86
2018-01-14T11:41:28.100Z,28.00
2018-01-14T11:42:28.076Z,28.66
2018-01-14T11:43:28.074Z,28.81
2018-01-14T11:44:28.074Z,27.77
2018-01-14T11:45:28.068Z,28.26
2018-01-14T11:46:28.059Z,29.68
2018-01-14T11:47:28.041Z,28.65
2018-01-14T11:48:28.030Z,29.36
2018-01-14T11:49:28.040Z,28.11
2018-01-14T11:50:28.013Z,27.10
2018-01-14T11:51:28.021Z,26.73
2018-01-14T11:52:28.012Z,28.02
2018-01-14T11:53:27.995Z,29.52
2018-01-14T11:54:27.978Z,26.02
2018-01-14T11:55:27.975Z,27.50
2018-01-14T11:56:27.996Z,28.79
2018-01-14T11:57:27.962Z,27.39
2018-01-14T11:58:27.951Z,29.01
2018-01-14T11:59:27.942Z,28.96
2018-01-14T12:00:27.932Z,28.16
2018-01-14T12:01:27.919Z,28.09
2018-01-14T12:02:27.912Z,28.91
2018-01-14T12:03:27.907Z,28.16
2018-01-14T12:04:27.895Z,28.02
2018-01-14T12:05:27.898Z,29.41
2018-01-14T12:06:27.881Z,26.86
2018-01-14T12:07:27.869Z,28.32
2018-01-14T12:08:27.868Z,26.63
2018-01-14T12:09:27.860Z,25.82
2018-01-14T12:10:27.851Z,27.36
2018-01-14T12:11:27.856Z,26.23
2018-01-14T12:12:27.833Z,25.39
2018-01-14T12:13:27.824Z,27.78
2018-01-14T12:14:27.842Z,25.94
2018-01-14T12:15:27.811Z,29.25
2018-01-14T12:16:27.814Z,29.28
2018-01-14T12:17:27.790Z,27.52
2018-01-14T12:18:27.779Z,27.06
2018-01-14T12:19:27.776Z,27.91
2018-01-14T12:20:27.766Z,30.29
2018-01-14T12:21:27.769Z,27.77
2018-01-14T12:22:27.760Z,27.71
2018-01-14T12:23:27.750Z,31.69
2018-01-14T12:24:27.742Z,29.70
2018-01-14T12:25:27.724Z,28.22
2018-01-14T12:26:27.747Z,28.12
2018-01-14T12:27:27.712Z,29.31
2018-01-14T12:28:27.704Z,30.99
2018-01-14T12:29:27.695Z,28.23
2018-01-14T12:30:27.705Z,25.64
2018-01-14T12:31:27.679Z,27.91
2018-01-14T12:32:27.667Z,26.93
2018-01-14T12:33:27.666Z,26.66
2018-01-14T12:34:27.646Z,29.65
2018-01-14T12:35:27.648Z,26.05
2018-01-14T12:36:27.635Z,25.70
2018-01-14T12:37:27.648Z,24.91
2018-01-14T12:38:27.623Z,26.54
2018-01-14T12:39:27.645Z,27.71
2018-01-14T12:40:27.600Z,25.87
2018-01-14T12:41:27.611Z,24.71
2018-01-14T12:42:27.586Z,25.46
2018-01-14T12:43:27.604Z,27.47
2018-01-14T12:44:27.587Z,27.02
2018-01-14T12:45:27.574Z,27.06
2018-01-14T12:46:27.551Z,26.31
2018-01-14T12:47:27.563Z,27.92
2018-01-14T12:48:27.561Z,28.15
2018-01-14T12:49:27.529Z,25.90
2018-01-14T12:50:27.511Z,27.48
2018-01-14T12:51:27.522Z,27.14
2018-01-14T12:52:27.504Z,27.19